Time;durP1;ratioP1;P1;durP2;ratioP2;P2;SDS_P1;SDS_P2;PMS_P1;PMS_P2;Temp;Humidity;BMP_temperature;BMP_pressure;BME280_temperature;BME280_humidity;BME280_pressure;Samples;Min_cycle;Max_cycle;Signal;HPM_P1;HPM_P2
2023/05/24 00:01:41;;;;;;;24.45;5.72;;;;;;;;;;5083203;28;21466;-80
2023/05/24 00:04:09;;;;;;;24.08;4.68;;;;;;;;;;5101025;27;20169;-80
2023/05/24 00:06:36;;;;;;;28.63;6.07;;;;;;;;;;5103028;27;20052;-80
2023/05/24 00:09:02;;;;;;;19.45;4.30;;;;;;;;;;5100288;28;20317;-80
2023/05/24 00:11:29;;;;;;;25.50;5.32;;;;;;;;;;5097998;27;20662;-80
2023/05/24 00:13:55;;;;;;;23.05;4.65;;;;;;;;;;5101170;27;20043;-79
2023/05/24 00:16:21;;;;;;;23.15;5.13;;;;;;;;;;5101518;27;20088;-80
2023/05/24 00:18:48;;;;;;;27.83;5.82;;;;;;;;;;5135192;27;20048;-80
2023/05/24 00:21:14;;;;;;;23.90;5.00;;;;;;;;;;5101309;28;21500;-79
2023/05/24 00:23:41;;;;;;;23.15;5.20;;;;;;;;;;5096903;27;20192;-80
2023/05/24 00:26:07;;;;;;;25.02;6.88;;;;;;;;;;5096470;27;20048;-79
2023/05/24 00:28:34;;;;;;;20.40;4.60;;;;;;;;;;5089483;27;20067;-80
2023/05/24 00:31:00;;;;;;;25.23;5.22;;;;;;;;;;5092509;27;20157;-80
2023/05/24 00:33:27;;;;;;;21.88;4.78;;;;;;;;;;5093816;28;20039;-79
2023/05/24 00:35:55;;;;;;;19.17;4.55;;;;;;;;;;5089998;27;20042;-80
2023/05/24 00:38:22;;;;;;;23.85;5.10;;;;;;;;;;5093554;28;20059;-80
2023/05/24 00:40:48;;;;;;;23.30;5.20;;;;;;;;;;5120697;27;20047;-80
2023/05/24 00:43:15;;;;;;;22.85;4.93;;;;;;;;;;5091132;27;20494;-80
2023/05/24 00:45:41;;;;;;;20.67;3.72;;;;;;;;;;5106828;27;20079;-80
2023/05/24 00:48:07;;;;;;;21.40;4.88;;;;;;;;;;5096749;28;20594;-79
2023/05/24 00:50:34;;;;;;;19.13;5.38;;;;;;;;;;5090676;28;20542;-80
2023/05/24 00:53:01;;;;;;;24.63;5.05;;;;;;;;;;5090490;28;20046;-80
2023/05/24 00:55:28;;;;;;;21.02;4.53;;;;;;;;;;5109824;27;20058;-79
2023/05/24 00:57:55;;;;;;;22.65;4.47;;;;;;;;;;5126842;27;20044;-80
2023/05/24 01:00:22;;;;;;;23.95;5.00;;;;;;;;;;5090552;28;20059;-80
2023/05/24 01:02:48;;;;;;;21.85;4.75;;;;;;;;;;5096041;28;20144;-80
2023/05/24 01:05:16;;;;;;;33.72;6.65;;;;;;;;;;5100470;28;20490;-80
2023/05/24 01:07:42;;;;;;;21.88;4.70;;;;;;;;;;5097893;28;20510;-80
2023/05/24 01:10:14;;;;;;;25.55;5.65;;;;;;;;;;5095994;28;20047;-80
2023/05/24 01:12:56;;;;;;;19.00;4.20;;;;;;;;;;5100382;28;20063;-80
2023/05/24 01:15:27;;;;;;;19.38;5.22;;;;;;;;;;5097823;28;20487;-80
2023/05/24 01:17:54;;;;;;;31.55;5.40;;;;;;;;;;5099687;28;20040;-80
2023/05/24 01:20:21;;;;;;;24.52;5.57;;;;;;;;;;5099220;28;20059;-80
2023/05/24 01:23:04;;;;;;;19.92;5.65;;;;;;;;;;5098649;28;20367;-80
2023/05/24 01:25:48;;;;;;;23.75;4.75;;;;;;;;;;5097619;28;20039;-79
2023/05/24 01:28:15;;;;;;;20.67;4.60;;;;;;;;;;5129905;27;20508;-80
2023/05/24 01:30:42;;;;;;;24.70;6.68;;;;;;;;;;5097723;28;20047;-80
2023/05/24 01:33:08;;;;;;;18.25;5.13;;;;;;;;;;5100399;28;20094;-80
2023/05/24 01:35:39;;;;;;;18.90;4.45;;;;;;;;;;5096835;28;20035;-80
2023/05/24 01:38:06;;;;;;;24.38;5.95;;;;;;;;;;5092674;28;20051;-81
2023/05/24 01:44:04;;;;;;;26.85;7.40;;;;;;;;;;5100117;28;20057;-80
2023/05/24 01:46:35;;;;;;;27.10;6.00;;;;;;;;;;5109958;27;20146;-80
2023/05/24 01:49:06;;;;;;;19.98;4.70;;;;;;;;;;5133855;27;20407;-80
2023/05/24 01:51:38;;;;;;;18.10;4.80;;;;;;;;;;5098257;28;20041;-80
2023/05/24 01:54:04;;;;;;;27.52;5.13;;;;;;;;;;5092699;28;20046;-76
2023/05/24 01:56:31;;;;;;;21.52;3.88;;;;;;;;;;5076812;28;20032;-80
2023/05/24 01:58:58;;;;;;;25.70;5.60;;;;;;;;;;5099665;28;20050;-80
2023/05/24 02:01:26;;;;;;;16.52;4.22;;;;;;;;;;5097294;28;20040;-80
2023/05/24 02:03:52;;;;;;;23.67;5.55;;;;;;;;;;5095090;27;20058;-80
2023/05/24 02:06:18;;;;;;;22.17;5.43;;;;;;;;;;5097065;27;20047;-80
2023/05/24 02:08:45;;;;;;;20.73;4.63;;;;;;;;;;5102637;27;20048;-80
2023/05/24 02:11:11;;;;;;;21.17;4.53;;;;;;;;;;5102983;27;20479;-80
2023/05/24 02:13:37;;;;;;;27.70;5.25;;;;;;;;;;5105579;27;20412;-80
2023/05/24 02:16:05;;;;;;;22.88;4.63;;;;;;;;;;5102058;27;20386;-80
2023/05/24 02:18:33;;;;;;;22.00;4.38;;;;;;;;;;5105206;27;20047;-80
2023/05/24 02:21:01;;;;;;;21.30;4.30;;;;;;;;;;5101714;27;20075;-80
2023/05/24 02:23:27;;;;;;;20.70;3.35;;;;;;;;;;5101083;27;20067;-79
2023/05/24 02:25:53;;;;;;;18.08;4.03;;;;;;;;;;5098285;27;20046;-80
2023/05/24 02:28:19;;;;;;;22.45;4.72;;;;;;;;;;5107225;27;20044;-80
2023/05/24 02:30:46;;;;;;;21.55;4.00;;;;;;;;;;5103000;27;20092;-80
2023/05/24 02:33:12;;;;;;;21.02;4.80;;;;;;;;;;5094861;27;20520;-80
2023/05/24 02:35:40;;;;;;;23.58;5.78;;;;;;;;;;5096635;27;20043;-80
2023/05/24 02:38:08;;;;;;;19.17;5.53;;;;;;;;;;5095559;28;20054;-80
2023/05/24 02:40:34;;;;;;;23.92;4.00;;;;;;;;;;5101962;27;20052;-80
2023/05/24 02:43:00;;;;;;;21.63;5.20;;;;;;;;;;5093879;27;20071;-79
2023/05/24 02:45:26;;;;;;;16.70;3.55;;;;;;;;;;5093379;27;20044;-80
2023/05/24 02:47:53;;;;;;;16.52;3.47;;;;;;;;;;5094681;27;20067;-80
2023/05/24 02:50:19;;;;;;;23.70;5.00;;;;;;;;;;5106465;27;20108;-80
2023/05/24 02:52:45;;;;;;;20.55;4.70;;;;;;;;;;5091333;27;20050;-80
2023/05/24 02:55:11;;;;;;;21.02;4.22;;;;;;;;;;5094952;27;20043;-80
2023/05/24 02:57:37;;;;;;;23.80;4.32;;;;;;;;;;5094175;27;20054;-80
2023/05/24 03:00:08;;;;;;;25.85;5.35;;;;;;;;;;5095306;27;20497;-80
2023/05/24 03:02:37;;;;;;;22.38;3.50;;;;;;;;;;5094372;27;20044;-79
2023/05/24 03:05:03;;;;;;;16.77;4.57;;;;;;;;;;5097199;27;20167;-80
2023/05/24 03:07:30;;;;;;;23.67;5.88;;;;;;;;;;5127556;27;20051;-80
2023/05/24 03:09:56;;;;;;;22.73;5.18;;;;;;;;;;5098393;27;20180;-80
2023/05/24 03:12:22;;;;;;;14.13;4.07;;;;;;;;;;5095714;27;20035;-80
2023/05/24 03:14:48;;;;;;;21.92;4.43;;;;;;;;;;5100128;27;20059;-80
2023/05/24 03:17:14;;;;;;;22.35;4.55;;;;;;;;;;5099028;27;20059;-80
2023/05/24 03:19:41;;;;;;;23.27;3.90;;;;;;;;;;5092681;27;20055;-80
2023/05/24 03:22:07;;;;;;;26.48;4.88;;;;;;;;;;5092966;27;20069;-80
2023/05/24 03:24:33;;;;;;;17.63;3.97;;;;;;;;;;5091157;28;20062;-80
2023/05/24 03:26:59;;;;;;;19.55;4.13;;;;;;;;;;5088857;27;20070;-80
2023/05/24 03:29:26;;;;;;;21.60;4.00;;;;;;;;;;5092399;27;20036;-80
2023/05/24 03:31:52;;;;;;;17.95;4.80;;;;;;;;;;5092803;27;20045;-80
2023/05/24 03:34:18;;;;;;;18.85;4.60;;;;;;;;;;5101168;27;20051;-80
2023/05/24 03:36:44;;;;;;;24.77;4.88;;;;;;;;;;5095102;28;20073;-80
2023/05/24 03:39:10;;;;;;;16.77;4.45;;;;;;;;;;5094525;27;22125;-79
2023/05/24 03:41:36;;;;;;;29.90;5.22;;;;;;;;;;5093785;27;20039;-80
2023/05/24 03:44:02;;;;;;;21.52;4.32;;;;;;;;;;5092161;27;20356;-80
2023/05/24 03:46:29;;;;;;;26.98;4.50;;;;;;;;;;5125595;27;20059;-80
2023/05/24 03:48:55;;;;;;;20.05;4.50;;;;;;;;;;5092311;27;20149;-80
2023/05/24 03:51:28;;;;;;;22.85;4.60;;;;;;;;;;5092840;27;20036;-80
2023/05/24 03:53:56;;;;;;;19.35;3.55;;;;;;;;;;5097143;27;20039;-80
2023/05/24 03:56:22;;;;;;;24.17;5.22;;;;;;;;;;5092718;27;20863;-80
2023/05/24 03:58:51;;;;;;;27.20;5.43;;;;;;;;;;5088336;27;20044;-80
2023/05/24 04:01:18;;;;;;;17.35;4.00;;;;;;;;;;5096728;27;20051;-80
2023/05/24 04:03:44;;;;;;;19.95;4.53;;;;;;;;;;5092325;27;20125;-80
2023/05/24 04:06:11;;;;;;;26.55;4.88;;;;;;;;;;5095105;27;20047;-80
2023/05/24 04:08:37;;;;;;;21.45;4.82;;;;;;;;;;5127885;27;20391;-80
2023/05/24 04:11:04;;;;;;;17.75;4.07;;;;;;;;;;5109915;27;20400;-80
2023/05/24 04:13:30;;;;;;;24.55;4.55;;;;;;;;;;5125391;27;20162;-80
2023/05/24 04:15:56;;;;;;;19.88;4.90;;;;;;;;;;5096427;28;20459;-80
2023/05/24 04:18:22;;;;;;;22.02;4.15;;;;;;;;;;5099178;27;20771;-80
2023/05/24 04:20:48;;;;;;;17.10;4.30;;;;;;;;;;5094330;28;20406;-80
2023/05/24 04:23:15;;;;;;;18.83;3.92;;;;;;;;;;5098223;27;20047;-80
2023/05/24 04:25:42;;;;;;;25.23;4.70;;;;;;;;;;5095727;27;20043;-79
2023/05/24 04:28:09;;;;;;;22.17;4.57;;;;;;;;;;5097444;27;20406;-79
2023/05/24 04:30:35;;;;;;;27.77;4.50;;;;;;;;;;5099344;27;20153;-80
2023/05/24 04:33:02;;;;;;;20.90;4.85;;;;;;;;;;5098158;27;20581;-79
2023/05/24 04:35:29;;;;;;;17.15;3.90;;;;;;;;;;5098670;28;20051;-80
2023/05/24 04:37:56;;;;;;;24.75;4.97;;;;;;;;;;5093728;28;20656;-80
2023/05/24 04:40:22;;;;;;;28.85;5.00;;;;;;;;;;5096990;28;20039;-80
2023/05/24 04:42:50;;;;;;;20.05;3.90;;;;;;;;;;5099422;28;20119;-80
2023/05/24 04:45:16;;;;;;;22.42;6.32;;;;;;;;;;5095136;28;20047;-80
2023/05/24 04:47:42;;;;;;;19.77;3.88;;;;;;;;;;5100526;28;20405;-80
2023/05/24 04:50:08;;;;;;;16.92;4.50;;;;;;;;;;5106955;28;20138;-79
2023/05/24 04:52:35;;;;;;;21.52;4.43;;;;;;;;;;5099380;28;20155;-80
2023/05/24 04:55:02;;;;;;;19.52;4.85;;;;;;;;;;5101860;28;20051;-80
2023/05/24 04:57:28;;;;;;;22.08;5.05;;;;;;;;;;5102248;28;20544;-79
2023/05/24 04:59:55;;;;;;;19.83;6.50;;;;;;;;;;5098825;28;20043;-80
2023/05/24 05:02:21;;;;;;;21.40;4.97;;;;;;;;;;5103670;28;20097;-80
2023/05/24 05:04:47;;;;;;;19.63;4.82;;;;;;;;;;5102760;28;20064;-79
2023/05/24 05:07:13;;;;;;;19.75;4.85;;;;;;;;;;5100408;28;20142;-76
2023/05/24 05:09:40;;;;;;;20.38;4.88;;;;;;;;;;5101415;28;20047;-79
2023/05/24 05:12:06;;;;;;;24.52;4.65;;;;;;;;;;5103462;28;20092;-78
2023/05/24 05:14:32;;;;;;;20.25;5.15;;;;;;;;;;5115681;27;20104;-75
2023/05/24 05:16:58;;;;;;;15.68;3.78;;;;;;;;;;5135446;27;20048;-80
2023/05/24 05:19:24;;;;;;;26.83;3.72;;;;;;;;;;5101532;28;20040;-78
2023/05/24 05:21:51;;;;;;;20.30;5.50;;;;;;;;;;5100596;28;20474;-79
2023/05/24 05:24:18;;;;;;;17.75;4.13;;;;;;;;;;5105144;28;20063;-80
2023/05/24 05:26:44;;;;;;;21.65;4.25;;;;;;;;;;5112168;27;20043;-79
2023/05/24 05:29:10;;;;;;;17.73;4.35;;;;;;;;;;5108116;28;20055;-79
2023/05/24 05:31:38;;;;;;;23.65;5.32;;;;;;;;;;5101474;28;20047;-78
2023/05/24 05:34:08;;;;;;;21.80;4.55;;;;;;;;;;5106043;28;20527;-82
2023/05/24 05:36:39;;;;;;;23.23;4.32;;;;;;;;;;5106692;27;20039;-80
2023/05/24 05:39:08;;;;;;;20.55;4.20;;;;;;;;;;5106799;27;20055;-80
2023/05/24 05:41:36;;;;;;;22.33;5.07;;;;;;;;;;5101121;27;20086;-82
2023/05/24 05:44:02;;;;;;;19.70;4.03;;;;;;;;;;5104648;27;20056;-82
2023/05/24 05:46:28;;;;;;;20.13;4.95;;;;;;;;;;5118389;27;20046;-82
2023/05/24 05:48:55;;;;;;;20.67;4.38;;;;;;;;;;5105184;27;20118;-81
2023/05/24 05:51:21;;;;;;;14.85;3.45;;;;;;;;;;5105335;27;20039;-82
2023/05/24 05:53:47;;;;;;;22.48;4.95;;;;;;;;;;5110731;27;20057;-82
2023/05/24 05:56:13;;;;;;;23.40;4.35;;;;;;;;;;5114435;27;20043;-82
2023/05/24 05:58:39;;;;;;;19.73;4.38;;;;;;;;;;5117337;27;20553;-82
2023/05/24 06:01:05;;;;;;;19.73;3.90;;;;;;;;;;5106916;27;20093;-82
2023/05/24 06:03:31;;;;;;;20.25;4.25;;;;;;;;;;5104487;27;20146;-82
2023/05/24 06:05:58;;;;;;;25.00;6.07;;;;;;;;;;5094636;27;20059;-82
2023/05/24 06:08:24;;;;;;;21.30;5.40;;;;;;;;;;5144733;27;20043;-82
2023/05/24 06:10:50;;;;;;;18.15;3.95;;;;;;;;;;5146022;27;20742;-79
2023/05/24 06:13:16;;;;;;;14.27;4.35;;;;;;;;;;5095683;27;20146;-80
2023/05/24 06:15:43;;;;;;;21.75;3.70;;;;;;;;;;5111621;27;20054;-81
2023/05/24 06:18:09;;;;;;;21.08;4.07;;;;;;;;;;5112513;27;20198;-81
2023/05/24 06:20:35;;;;;;;19.92;4.65;;;;;;;;;;5110214;27;20088;-81
2023/05/24 06:23:01;;;;;;;20.63;4.05;;;;;;;;;;5110612;27;20039;-81
2023/05/24 06:25:29;;;;;;;24.63;4.63;;;;;;;;;;5112928;27;20043;-75
2023/05/24 06:27:56;;;;;;;20.98;4.25;;;;;;;;;;5095158;28;20514;-74
2023/05/24 06:30:22;;;;;;;16.73;4.07;;;;;;;;;;5117993;27;20055;-75
2023/05/24 06:32:48;;;;;;;17.77;4.90;;;;;;;;;;5110292;27;20035;-75
2023/05/24 06:35:14;;;;;;;19.10;3.67;;;;;;;;;;5097646;27;20504;-74
2023/05/24 06:37:41;;;;;;;16.35;3.75;;;;;;;;;;5112202;27;20041;-75
2023/05/24 06:40:08;;;;;;;22.40;5.60;;;;;;;;;;5103244;27;20050;-75
2023/05/24 06:42:35;;;;;;;22.25;4.50;;;;;;;;;;5110706;27;20074;-75
2023/05/24 06:45:02;;;;;;;24.67;5.32;;;;;;;;;;5114767;27;20067;-75
2023/05/24 06:47:28;;;;;;;15.65;4.03;;;;;;;;;;5114056;27;20632;-75
2023/05/24 06:49:55;;;;;;;18.95;4.25;;;;;;;;;;5112411;27;20376;-75
2023/05/24 06:52:22;;;;;;;16.02;3.40;;;;;;;;;;5122982;27;20046;-75
2023/05/24 06:54:49;;;;;;;19.65;4.07;;;;;;;;;;5111435;27;20054;-75
2023/05/24 06:57:15;;;;;;;18.33;3.47;;;;;;;;;;5117893;27;20114;-75
2023/05/24 06:59:41;;;;;;;22.20;4.28;;;;;;;;;;5105867;27;20486;-75
2023/05/24 07:02:08;;;;;;;20.52;4.18;;;;;;;;;;5102941;27;20478;-75
2023/05/24 07:04:34;;;;;;;16.90;3.78;;;;;;;;;;5106571;27;20076;-75
2023/05/24 07:07:01;;;;;;;16.35;3.83;;;;;;;;;;5102933;27;20139;-75
2023/05/24 07:09:28;;;;;;;19.65;4.07;;;;;;;;;;5107119;27;20099;-75
2023/05/24 07:11:54;;;;;;;18.25;3.17;;;;;;;;;;5100098;27;20051;-83
2023/05/24 07:14:21;;;;;;;20.98;3.88;;;;;;;;;;5104789;27;20055;-84
2023/05/24 07:16:48;;;;;;;17.75;3.95;;;;;;;;;;5120701;27;20035;-83
2023/05/24 07:19:14;;;;;;;17.85;3.78;;;;;;;;;;5121621;27;21163;-84
2023/05/24 07:21:41;;;;;;;15.60;3.33;;;;;;;;;;5112618;27;20036;-84
2023/05/24 07:24:07;;;;;;;15.02;3.90;;;;;;;;;;5117641;27;20050;-84
2023/05/24 07:26:33;;;;;;;16.65;3.38;;;;;;;;;;5111482;27;20208;-84
2023/05/24 07:28:59;;;;;;;20.98;4.32;;;;;;;;;;5109010;27;20050;-83
2023/05/24 07:31:26;;;;;;;16.00;3.40;;;;;;;;;;5097808;27;20072;-83
2023/05/24 07:33:52;;;;;;;15.65;3.92;;;;;;;;;;5105950;27;20047;-84
2023/05/24 07:36:18;;;;;;;14.95;3.75;;;;;;;;;;5106968;27;20043;-84
2023/05/24 07:38:45;;;;;;;17.75;4.22;;;;;;;;;;5106696;27;20157;-84
2023/05/24 07:41:13;;;;;;;16.15;3.15;;;;;;;;;;5106489;27;20040;-84
2023/05/24 07:43:39;;;;;;;15.85;3.63;;;;;;;;;;5108111;27;20039;-84
2023/05/24 07:46:05;;;;;;;19.40;3.40;;;;;;;;;;5107034;27;20043;-84
2023/05/24 07:48:31;;;;;;;15.85;3.53;;;;;;;;;;5104959;27;20051;-84
2023/05/24 07:50:57;;;;;;;16.98;3.63;;;;;;;;;;5107462;27;20118;-84
2023/05/24 07:53:23;;;;;;;11.70;3.00;;;;;;;;;;5106907;27;20047;-83
2023/05/24 07:55:50;;;;;;;18.63;3.88;;;;;;;;;;5104802;27;20040;-83
2023/05/24 07:58:16;;;;;;;15.40;3.53;;;;;;;;;;5106857;27;20382;-84
2023/05/24 08:00:42;;;;;;;17.02;3.97;;;;;;;;;;5138328;27;20070;-84
2023/05/24 08:03:12;;;;;;;13.05;2.72;;;;;;;;;;5106066;27;20616;-84
2023/05/24 08:05:38;;;;;;;14.82;4.38;;;;;;;;;;5106283;27;20043;-84
2023/05/24 08:08:05;;;;;;;15.52;3.20;;;;;;;;;;5096090;27;20043;-84
2023/05/24 08:10:31;;;;;;;18.63;3.67;;;;;;;;;;5108396;27;20522;-84
2023/05/24 08:12:57;;;;;;;16.33;3.45;;;;;;;;;;5101303;27;20040;-84
2023/05/24 08:15:23;;;;;;;14.65;2.67;;;;;;;;;;5100892;27;20043;-83
2023/05/24 08:17:50;;;;;;;21.70;4.65;;;;;;;;;;5102248;27;20150;-83
2023/05/24 08:20:16;;;;;;;15.43;4.00;;;;;;;;;;5099824;27;20445;-74
2023/05/24 08:22:42;;;;;;;14.70;3.00;;;;;;;;;;5098524;27;20158;-84
2023/05/24 08:25:10;;;;;;;14.15;3.42;;;;;;;;;;5101239;27;20069;-83
2023/05/24 08:27:36;;;;;;;16.27;3.67;;;;;;;;;;5119555;27;20355;-83
2023/05/24 08:30:03;;;;;;;15.15;3.47;;;;;;;;;;5101317;28;20047;-84
2023/05/24 08:32:31;;;;;;;12.85;3.45;;;;;;;;;;5103196;27;20480;-83
2023/05/24 08:34:57;;;;;;;15.90;3.63;;;;;;;;;;5101823;28;20506;-84
2023/05/24 08:37:23;;;;;;;16.92;3.63;;;;;;;;;;5100337;28;20491;-83
2023/05/24 08:39:50;;;;;;;17.65;3.55;;;;;;;;;;5103185;27;20059;-80
2023/05/24 08:42:16;;;;;;;11.63;3.03;;;;;;;;;;5102889;27;20391;-77
2023/05/24 08:44:52;;;;;;;15.32;3.30;;;;;;;;;;5101643;27;20036;-79
2023/05/24 08:47:21;;;;;;;13.45;3.47;;;;;;;;;;5103221;27;20102;-79
2023/05/24 08:49:47;;;;;;;12.68;3.60;;;;;;;;;;5101885;28;20050;-79
2023/05/24 08:52:14;;;;;;;12.68;3.70;;;;;;;;;;5101654;28;20126;-79
2023/05/24 08:54:40;;;;;;;14.45;3.80;;;;;;;;;;5102110;28;20101;-79
2023/05/24 08:57:07;;;;;;;11.80;3.08;;;;;;;;;;5100764;28;20043;-79
2023/05/24 08:59:33;;;;;;;12.75;3.05;;;;;;;;;;5099804;28;20043;-79
2023/05/24 09:01:59;;;;;;;13.52;2.83;;;;;;;;;;5115887;27;20795;-79
2023/05/24 09:04:27;;;;;;;15.60;4.65;;;;;;;;;;5102132;28;20060;-79
2023/05/24 09:06:55;;;;;;;18.05;3.47;;;;;;;;;;5103306;28;20040;-79
2023/05/24 09:09:21;;;;;;;15.38;4.07;;;;;;;;;;5101571;28;20100;-82
2023/05/24 09:11:49;;;;;;;13.93;3.30;;;;;;;;;;5100590;28;20051;-71
2023/05/24 09:14:16;;;;;;;13.35;3.70;;;;;;;;;;5103898;27;20059;-71
2023/05/24 09:16:43;;;;;;;13.45;3.25;;;;;;;;;;5136495;27;20051;-71
2023/05/24 09:19:10;;;;;;;11.77;3.30;;;;;;;;;;5104649;27;20085;-72
2023/05/24 09:21:36;;;;;;;14.32;3.20;;;;;;;;;;5106580;27;20039;-71
2023/05/24 09:24:07;;;;;;;13.88;3.50;;;;;;;;;;5114600;27;20144;-71
2023/05/24 09:26:35;;;;;;;12.88;2.92;;;;;;;;;;5137465;27;20058;-71
2023/05/24 09:29:01;;;;;;;13.93;2.88;;;;;;;;;;5108905;27;20079;-71
2023/05/24 09:31:33;;;;;;;18.05;4.60;;;;;;;;;;5108082;27;20047;-70
2023/05/24 09:34:00;;;;;;;12.63;2.97;;;;;;;;;;5106886;27;20098;-70
2023/05/24 09:36:28;;;;;;;12.75;3.40;;;;;;;;;;5109576;28;20067;-71
2023/05/24 09:39:07;;;;;;;16.05;3.30;;;;;;;;;;5107734;27;20498;-70
2023/05/24 09:41:34;;;;;;;9.27;3.15;;;;;;;;;;5131609;27;20039;-70
2023/05/24 09:44:02;;;;;;;15.70;3.90;;;;;;;;;;5110301;27;20187;-71
2023/05/24 09:46:28;;;;;;;15.13;3.35;;;;;;;;;;5108703;27;20495;-70
2023/05/24 09:48:55;;;;;;;14.25;3.42;;;;;;;;;;5107303;27;21181;-70
2023/05/24 09:51:21;;;;;;;13.60;3.28;;;;;;;;;;5109016;27;20248;-71
2023/05/24 09:53:51;;;;;;;13.43;3.45;;;;;;;;;;5108861;27;20039;-71
2023/05/24 09:56:17;;;;;;;11.93;3.53;;;;;;;;;;5107253;27;20463;-72
2023/05/24 09:58:44;;;;;;;13.07;2.60;;;;;;;;;;5107918;27;20054;-72
2023/05/24 10:01:13;;;;;;;13.88;3.15;;;;;;;;;;5106975;27;20039;-72
2023/05/24 10:03:51;;;;;;;10.13;2.85;;;;;;;;;;5109323;27;20470;-72
2023/05/24 10:06:17;;;;;;;13.00;3.38;;;;;;;;;;5108799;27;20074;-75
2023/05/24 10:08:44;;;;;;;12.80;4.05;;;;;;;;;;5107221;28;20039;-74
2023/05/24 10:11:10;;;;;;;12.18;3.83;;;;;;;;;;5107869;27;20036;-74
2023/05/24 10:13:36;;;;;;;12.80;3.03;;;;;;;;;;5109156;27;20043;-73
2023/05/24 10:16:03;;;;;;;14.07;3.22;;;;;;;;;;5110913;27;20199;-74
2023/05/24 10:18:29;;;;;;;13.48;3.13;;;;;;;;;;5095599;28;20164;-71
2023/05/24 10:20:56;;;;;;;12.65;2.63;;;;;;;;;;5110598;27;20035;-74
2023/05/24 10:23:24;;;;;;;11.27;3.70;;;;;;;;;;5106752;27;20052;-73
2023/05/24 10:25:54;;;;;;;16.17;3.38;;;;;;;;;;5105513;27;20071;-69
2023/05/24 10:28:21;;;;;;;12.38;3.92;;;;;;;;;;5107166;27;20036;-75
2023/05/24 10:30:53;;;;;;;15.77;3.42;;;;;;;;;;5106756;27;20393;-75
2023/05/24 10:33:21;;;;;;;13.65;3.75;;;;;;;;;;5106926;27;20128;-72
2023/05/24 10:35:47;;;;;;;13.55;4.45;;;;;;;;;;5107850;27;20031;-72
2023/05/24 10:38:13;;;;;;;11.88;3.97;;;;;;;;;;5105065;27;20505;-72
2023/05/24 10:40:42;;;;;;;11.95;2.60;;;;;;;;;;5104485;27;20130;-72
2023/05/24 10:43:09;;;;;;;17.67;3.63;;;;;;;;;;5105947;27;20239;-72
2023/05/24 10:45:37;;;;;;;14.95;3.40;;;;;;;;;;5108294;28;20046;-72
2023/05/24 10:48:09;;;;;;;12.82;3.78;;;;;;;;;;5106346;27;20047;-72
2023/05/24 10:50:35;;;;;;;12.50;3.42;;;;;;;;;;5106046;28;21263;-72
2023/05/24 10:53:17;;;;;;;19.17;3.80;;;;;;;;;;5117544;27;20066;-72
2023/05/24 10:56:00;;;;;;;10.73;3.30;;;;;;;;;;5106073;27;20036;-71
2023/05/24 10:58:29;;;;;;;13.63;3.92;;;;;;;;;;5106425;27;20387;-72
2023/05/24 11:00:55;;;;;;;12.75;3.67;;;;;;;;;;5106334;28;20055;-71
2023/05/24 11:03:23;;;;;;;11.13;4.03;;;;;;;;;;5105438;28;20382;-72
2023/05/24 11:05:49;;;;;;;14.27;2.90;;;;;;;;;;5103873;27;20069;-71
2023/05/24 11:08:24;;;;;;;13.88;3.90;;;;;;;;;;5117649;27;20044;-72
2023/05/24 11:10:51;;;;;;;7.72;2.83;;;;;;;;;;5089617;28;20049;-72
2023/05/24 11:13:19;;;;;;;11.60;2.80;;;;;;;;;;5104630;28;20727;-72
2023/05/24 11:15:50;;;;;;;17.88;3.60;;;;;;;;;;5104839;27;20039;-73
2023/05/24 11:18:19;;;;;;;9.75;3.33;;;;;;;;;;5105411;27;20066;-74
2023/05/24 11:20:45;;;;;;;9.55;3.13;;;;;;;;;;5106680;27;20040;-73
2023/05/24 11:23:12;;;;;;;14.27;3.17;;;;;;;;;;5089460;28;20131;-73
2023/05/24 11:25:38;;;;;;;8.23;2.50;;;;;;;;;;5105315;27;20093;-72
2023/05/24 11:28:09;;;;;;;9.82;3.03;;;;;;;;;;5106069;27;20044;-73
2023/05/24 11:30:39;;;;;;;15.07;3.20;;;;;;;;;;5139585;27;20051;-72
2023/05/24 11:33:13;;;;;;;11.77;3.75;;;;;;;;;;5106570;28;20094;-73
2023/05/24 11:35:39;;;;;;;9.38;2.72;;;;;;;;;;5102474;27;20146;-73
2023/05/24 11:38:11;;;;;;;11.23;3.28;;;;;;;;;;5107869;27;20040;-72
2023/05/24 11:40:43;;;;;;;13.68;3.42;;;;;;;;;;5108121;27;20126;-73
2023/05/24 11:43:09;;;;;;;13.55;3.28;;;;;;;;;;5106984;27;20127;-73
2023/05/24 11:45:36;;;;;;;12.88;3.20;;;;;;;;;;5111259;27;20039;-73
2023/05/24 11:48:05;;;;;;;11.23;2.80;;;;;;;;;;5107441;27;20055;-72
2023/05/24 11:50:31;;;;;;;7.95;2.42;;;;;;;;;;5126235;27;20043;-73
2023/05/24 11:53:02;;;;;;;14.85;3.53;;;;;;;;;;5108645;28;20054;-72
2023/05/24 11:55:29;;;;;;;8.07;2.40;;;;;;;;;;5109561;28;20466;-75
2023/05/24 11:57:58;;;;;;;10.05;2.60;;;;;;;;;;5108836;28;20048;-74
2023/05/24 12:00:24;;;;;;;10.18;2.97;;;;;;;;;;5108187;28;20043;-76
2023/05/24 12:02:51;;;;;;;13.27;4.68;;;;;;;;;;5105658;27;20036;-76
2023/05/24 12:05:18;;;;;;;9.70;2.70;;;;;;;;;;5108611;28;20044;-75
2023/05/24 12:07:47;;;;;;;12.18;2.85;;;;;;;;;;5108116;28;20035;-73
2023/05/24 12:10:15;;;;;;;8.73;3.33;;;;;;;;;;5107919;28;20051;-72
2023/05/24 12:12:43;;;;;;;12.05;4.30;;;;;;;;;;5112309;27;20119;-72
2023/05/24 12:15:09;;;;;;;8.32;3.20;;;;;;;;;;5110731;28;20044;-73
2023/05/24 12:17:36;;;;;;;11.23;2.80;;;;;;;;;;5112989;28;20054;-72
2023/05/24 12:20:04;;;;;;;11.07;2.65;;;;;;;;;;5110144;28;20039;-72
2023/05/24 12:22:32;;;;;;;11.38;2.60;;;;;;;;;;5106846;27;20585;-71
2023/05/24 12:24:58;;;;;;;11.00;2.42;;;;;;;;;;5107763;27;20525;-70
2023/05/24 12:27:26;;;;;;;9.13;2.53;;;;;;;;;;5107599;27;20128;-74
2023/05/24 12:29:52;;;;;;;12.75;3.70;;;;;;;;;;5106696;27;20056;-73
2023/05/24 12:32:19;;;;;;;8.88;3.50;;;;;;;;;;5107476;27;20125;-73
2023/05/24 12:34:45;;;;;;;9.40;2.78;;;;;;;;;;5107987;27;20043;-73
2023/05/24 12:37:12;;;;;;;10.50;3.33;;;;;;;;;;5110672;27;20473;-73
2023/05/24 12:39:41;;;;;;;10.27;3.10;;;;;;;;;;5104594;27;20183;-73
2023/05/24 12:42:07;;;;;;;10.00;2.97;;;;;;;;;;5103090;27;20159;-74
2023/05/24 12:44:35;;;;;;;10.00;2.80;;;;;;;;;;5103324;27;20128;-74
2023/05/24 12:47:03;;;;;;;12.98;2.97;;;;;;;;;;5105338;28;20043;-74
2023/05/24 12:49:29;;;;;;;14.25;2.95;;;;;;;;;;5109454;27;20043;-74
2023/05/24 12:51:56;;;;;;;9.15;2.40;;;;;;;;;;5106736;28;21082;-74
2023/05/24 12:54:23;;;;;;;10.57;3.28;;;;;;;;;;5106531;28;20051;-74
2023/05/24 12:56:49;;;;;;;13.07;3.25;;;;;;;;;;5097003;28;20131;-74
2023/05/24 12:59:15;;;;;;;6.70;2.20;;;;;;;;;;5107608;28;20600;-74
2023/05/24 13:01:42;;;;;;;10.45;3.03;;;;;;;;;;5107831;28;20027;-74
2023/05/24 13:04:09;;;;;;;9.43;3.20;;;;;;;;;;5109009;28;20080;-74
2023/05/24 13:06:36;;;;;;;9.57;3.22;;;;;;;;;;5108930;28;20044;-74
2023/05/24 13:09:03;;;;;;;9.23;2.75;;;;;;;;;;5106401;28;20047;-74
2023/05/24 13:11:30;;;;;;;12.05;3.63;;;;;;;;;;5104580;28;20126;-69
2023/05/24 13:13:58;;;;;;;9.63;2.92;;;;;;;;;;5107162;28;20069;-67
2023/05/24 13:16:25;;;;;;;11.35;3.47;;;;;;;;;;5104718;28;20119;-68
2023/05/24 13:18:51;;;;;;;9.65;3.03;;;;;;;;;;5100643;28;20044;-68
2023/05/24 13:21:18;;;;;;;10.80;2.72;;;;;;;;;;5103181;28;20495;-69
2023/05/24 13:23:44;;;;;;;11.00;3.17;;;;;;;;;;5101299;28;20059;-68
2023/05/24 13:26:11;;;;;;;13.05;3.22;;;;;;;;;;5100822;28;20069;-69
2023/05/24 13:28:38;;;;;;;10.52;3.15;;;;;;;;;;5100765;28;20047;-68
2023/05/24 13:31:04;;;;;;;10.75;3.20;;;;;;;;;;5104761;28;20043;-69
2023/05/24 13:33:31;;;;;;;9.30;3.58;;;;;;;;;;5115882;27;20370;-69
2023/05/24 13:35:57;;;;;;;12.63;3.28;;;;;;;;;;5094013;28;20067;-68
2023/05/24 13:38:24;;;;;;;12.80;3.22;;;;;;;;;;5098720;28;20119;-69
2023/05/24 13:40:52;;;;;;;12.20;3.35;;;;;;;;;;5145164;27;20122;-68
2023/05/24 13:43:18;;;;;;;10.65;3.25;;;;;;;;;;5108624;28;20051;-69
2023/05/24 13:45:44;;;;;;;10.95;2.88;;;;;;;;;;5119013;27;20047;-75
2023/05/24 13:48:11;;;;;;;9.57;2.50;;;;;;;;;;5095943;28;20058;-75
2023/05/24 13:50:37;;;;;;;7.75;2.70;;;;;;;;;;5102062;28;20119;-71
2023/05/24 13:53:04;;;;;;;14.30;3.10;;;;;;;;;;5112602;27;20050;-71
2023/05/24 13:55:31;;;;;;;9.32;2.78;;;;;;;;;;5102301;28;20183;-71
2023/05/24 13:57:57;;;;;;;12.13;2.50;;;;;;;;;;5102515;27;20055;-72
2023/05/24 14:00:23;;;;;;;11.88;3.42;;;;;;;;;;5107570;27;20377;-71
2023/05/24 14:02:50;;;;;;;16.10;3.70;;;;;;;;;;5102537;27;20055;-71
2023/05/24 14:05:16;;;;;;;14.48;3.35;;;;;;;;;;5105255;27;20479;-71
2023/05/24 14:07:43;;;;;;;10.75;3.00;;;;;;;;;;5107546;27;20059;-71
2023/05/24 14:10:09;;;;;;;14.77;3.58;;;;;;;;;;5103964;27;20052;-72
2023/05/24 14:12:35;;;;;;;9.68;2.35;;;;;;;;;;5116467;27;20035;-71
2023/05/24 14:15:03;;;;;;;13.20;2.90;;;;;;;;;;5107740;27;20092;-71
2023/05/24 14:17:29;;;;;;;13.45;3.15;;;;;;;;;;5110817;27;20055;-72
2023/05/24 14:19:56;;;;;;;9.98;3.50;;;;;;;;;;5108255;27;20036;-72
2023/05/24 14:22:24;;;;;;;8.40;2.50;;;;;;;;;;5115505;27;20038;-72
2023/05/24 14:24:50;;;;;;;9.93;2.35;;;;;;;;;;5115975;27;20040;-72
2023/05/24 14:27:17;;;;;;;10.40;2.83;;;;;;;;;;5111435;27;20180;-72
2023/05/24 14:29:43;;;;;;;10.35;3.35;;;;;;;;;;5114217;27;20047;-72
2023/05/24 14:32:10;;;;;;;10.73;2.47;;;;;;;;;;5111807;27;20108;-72
2023/05/24 14:34:36;;;;;;;10.27;3.30;;;;;;;;;;5111742;27;20055;-72